sensor_id;sensor_type;location;lat;lon;timestamp;temperature;humidity
13115;DHT22;6623;52.120;8.660;2023-04-08T00:02:19;7.30;60.50
13115;DHT22;6623;52.120;8.660;2023-04-08T00:04:45;7.30;60.50
13115;DHT22;6623;52.120;8.660;2023-04-08T00:07:11;7.10;60.60
13115;DHT22;6623;52.120;8.660;2023-04-08T00:09:36;7.20;60.70
13115;DHT22;6623;52.120;8.660;2023-04-08T00:12:03;7.20;60.70
13115;DHT22;6623;52.120;8.660;2023-04-08T00:14:28;7.50;61.30
13115;DHT22;6623;52.120;8.660;2023-04-08T00:16:54;7.20;60.80
13115;DHT22;6623;52.120;8.660;2023-04-08T00:19:19;7.20;60.90
13115;DHT22;6623;52.120;8.660;2023-04-08T00:21:45;7.30;61.00
13115;DHT22;6623;52.120;8.660;2023-04-08T00:24:11;7.20;61.10
13115;DHT22;6623;52.120;8.660;2023-04-08T00:26:37;8.10;61.60
13115;DHT22;6623;52.120;8.660;2023-04-08T00:29:03;7.20;61.20
13115;DHT22;6623;52.120;8.660;2023-04-08T00:31:28;7.30;61.30
13115;DHT22;6623;52.120;8.660;2023-04-08T00:33:54;7.30;61.30
13115;DHT22;6623;52.120;8.660;2023-04-08T00:36:20;7.30;61.50
13115;DHT22;6623;52.120;8.660;2023-04-08T00:38:45;7.30;61.50
13115;DHT22;6623;52.120;8.660;2023-04-08T00:41:11;7.40;61.70
13115;DHT22;6623;52.120;8.660;2023-04-08T00:43:37;8.40;62.60
13115;DHT22;6623;52.120;8.660;2023-04-08T00:46:03;7.30;62.10
13115;DHT22;6623;52.120;8.660;2023-04-08T00:48:29;7.90;62.60
13115;DHT22;6623;52.120;8.660;2023-04-08T00:50:56;7.20;62.20
13115;DHT22;6623;52.120;8.660;2023-04-08T00:53:21;8.50;63.10
13115;DHT22;6623;52.120;8.660;2023-04-08T00:55:47;7.10;61.90
13115;DHT22;6623;52.120;8.660;2023-04-08T00:58:13;6.90;62.50
13115;DHT22;6623;52.120;8.660;2023-04-08T01:00:42;7.20;62.70
13115;DHT22;6623;52.120;8.660;2023-04-08T01:03:17;7.30;62.80
13115;DHT22;6623;52.120;8.660;2023-04-08T01:05:59;7.30;63.00
13115;DHT22;6623;52.120;8.660;2023-04-08T01:08:28;7.10;63.00
13115;DHT22;6623;52.120;8.660;2023-04-08T01:10:58;7.10;63.30
13115;DHT22;6623;52.120;8.660;2023-04-08T01:13:28;7.30;63.50
13115;DHT22;6623;52.120;8.660;2023-04-08T01:15:55;7.30;63.60
13115;DHT22;6623;52.120;8.660;2023-04-08T01:18:23;7.10;63.70
13115;DHT22;6623;52.120;8.660;2023-04-08T01:20:49;7.30;63.90
13115;DHT22;6623;52.120;8.660;2023-04-08T01:25:52;7.40;64.30
13115;DHT22;6623;52.120;8.660;2023-04-08T01:28:18;7.30;64.40
13115;DHT22;6623;52.120;8.660;2023-04-08T01:30:46;7.30;64.60
13115;DHT22;6623;52.120;8.660;2023-04-08T01:33:15;7.30;64.80
13115;DHT22;6623;52.120;8.660;2023-04-08T01:35:42;7.20;64.80
13115;DHT22;6623;52.120;8.660;2023-04-08T01:38:09;7.30;65.10
13115;DHT22;6623;52.120;8.660;2023-04-08T01:40:37;7.20;65.10
13115;DHT22;6623;52.120;8.660;2023-04-08T01:43:06;7.40;65.30
13115;DHT22;6623;52.120;8.660;2023-04-08T01:45:32;8.50;66.20
13115;DHT22;6623;52.120;8.660;2023-04-08T01:47:59;7.20;65.50
13115;DHT22;6623;52.120;8.660;2023-04-08T01:50:26;7.30;65.60
13115;DHT22;6623;52.120;8.660;2023-04-08T01:52:52;7.40;65.80
13115;DHT22;6623;52.120;8.660;2023-04-08T01:55:19;7.50;66.10
13115;DHT22;6623;52.120;8.660;2023-04-08T01:57:48;7.60;66.30
13115;DHT22;6623;52.120;8.660;2023-04-08T02:00:18;8.10;66.70
13115;DHT22;6623;52.120;8.660;2023-04-08T02:02:45;7.40;66.60
13115;DHT22;6623;52.120;8.660;2023-04-08T02:05:12;7.50;66.80
13115;DHT22;6623;52.120;8.660;2023-04-08T02:07:38;7.50;67.00
13115;DHT22;6623;52.120;8.660;2023-04-08T02:10:04;7.40;67.10
13115;DHT22;6623;52.120;8.660;2023-04-08T02:12:30;7.50;67.50
13115;DHT22;6623;52.120;8.660;2023-04-08T02:14:57;7.40;67.80
13115;DHT22;6623;52.120;8.660;2023-04-08T02:20:30;7.50;68.20
13115;DHT22;6623;52.120;8.660;2023-04-08T02:23:05;7.50;68.20
13115;DHT22;6623;52.120;8.660;2023-04-08T02:25:34;7.40;68.30
13115;DHT22;6623;52.120;8.660;2023-04-08T02:28:03;7.40;68.30
13115;DHT22;6623;52.120;8.660;2023-04-08T02:30:30;7.40;68.50
13115;DHT22;6623;52.120;8.660;2023-04-08T02:32:57;7.50;68.70
13115;DHT22;6623;52.120;8.660;2023-04-08T02:35:23;7.50;68.90
13115;DHT22;6623;52.120;8.660;2023-04-08T02:37:49;8.60;69.60
13115;DHT22;6623;52.120;8.660;2023-04-08T02:40:23;8.60;69.90
13115;DHT22;6623;52.120;8.660;2023-04-08T02:42:49;7.30;69.30
13115;DHT22;6623;52.120;8.660;2023-04-08T02:45:15;7.50;69.80
13115;DHT22;6623;52.120;8.660;2023-04-08T02:47:40;7.50;69.90
13115;DHT22;6623;52.120;8.660;2023-04-08T02:50:06;7.40;70.70
13115;DHT22;6623;52.120;8.660;2023-04-08T02:52:32;7.40;70.70
13115;DHT22;6623;52.120;8.660;2023-04-08T02:54:57;7.40;70.70
13115;DHT22;6623;52.120;8.660;2023-04-08T02:57:23;7.40;70.80
13115;DHT22;6623;52.120;8.660;2023-04-08T02:59:48;7.40;70.90
13115;DHT22;6623;52.120;8.660;2023-04-08T03:02:14;8.40;71.70
13115;DHT22;6623;52.120;8.660;2023-04-08T03:04:39;7.40;71.20
13115;DHT22;6623;52.120;8.660;2023-04-08T03:07:05;7.80;71.50
13115;DHT22;6623;52.120;8.660;2023-04-08T03:09:31;7.50;71.30
13115;DHT22;6623;52.120;8.660;2023-04-08T03:11:56;7.40;71.30
13115;DHT22;6623;52.120;8.660;2023-04-08T03:14:22;7.20;71.40
13115;DHT22;6623;52.120;8.660;2023-04-08T03:16:47;7.70;71.90
13115;DHT22;6623;52.120;8.660;2023-04-08T03:19:13;7.10;71.60
13115;DHT22;6623;52.120;8.660;2023-04-08T03:21:39;7.10;71.60
13115;DHT22;6623;52.120;8.660;2023-04-08T03:24:04;6.60;71.40
13115;DHT22;6623;52.120;8.660;2023-04-08T03:26:30;8.40;72.50
13115;DHT22;6623;52.120;8.660;2023-04-08T03:28:55;8.60;72.70
13115;DHT22;6623;52.120;8.660;2023-04-08T03:31:21;8.30;72.50
13115;DHT22;6623;52.120;8.660;2023-04-08T03:33:47;7.30;72.00
13115;DHT22;6623;52.120;8.660;2023-04-08T03:36:12;7.40;72.20
13115;DHT22;6623;52.120;8.660;2023-04-08T03:38:38;7.30;72.50
13115;DHT22;6623;52.120;8.660;2023-04-08T03:41:03;7.40;72.50
13115;DHT22;6623;52.120;8.660;2023-04-08T03:43:29;7.30;72.70
13115;DHT22;6623;52.120;8.660;2023-04-08T03:45:55;7.20;72.80
13115;DHT22;6623;52.120;8.660;2023-04-08T03:48:21;8.40;73.60
13115;DHT22;6623;52.120;8.660;2023-04-08T03:50:46;7.30;73.10
13115;DHT22;6623;52.120;8.660;2023-04-08T03:53:12;7.30;73.00
13115;DHT22;6623;52.120;8.660;2023-04-08T03:55:38;7.20;73.10
13115;DHT22;6623;52.120;8.660;2023-04-08T03:58:04;7.30;73.20
13115;DHT22;6623;52.120;8.660;2023-04-08T04:00:30;7.30;73.40
13115;DHT22;6623;52.120;8.660;2023-04-08T04:02:55;7.30;73.60
13115;DHT22;6623;52.120;8.660;2023-04-08T04:05:21;7.10;73.60
13115;DHT22;6623;52.120;8.660;2023-04-08T04:07:47;7.20;73.70
13115;DHT22;6623;52.120;8.660;2023-04-08T04:10:12;7.10;73.60
13115;DHT22;6623;52.120;8.660;2023-04-08T04:12:38;7.20;74.00
13115;DHT22;6623;52.120;8.660;2023-04-08T04:15:04;7.20;74.10
13115;DHT22;6623;52.120;8.660;2023-04-08T04:17:30;7.20;74.30
13115;DHT22;6623;52.120;8.660;2023-04-08T04:19:55;7.10;74.30
13115;DHT22;6623;52.120;8.660;2023-04-08T04:22:21;7.10;74.30
13115;DHT22;6623;52.120;8.660;2023-04-08T04:24:47;7.10;74.40
13115;DHT22;6623;52.120;8.660;2023-04-08T04:27:14;7.20;74.50
13115;DHT22;6623;52.120;8.660;2023-04-08T04:29:39;6.50;74.10
13115;DHT22;6623;52.120;8.660;2023-04-08T04:32:05;7.10;74.60
13115;DHT22;6623;52.120;8.660;2023-04-08T04:34:31;7.00;74.70
13115;DHT22;6623;52.120;8.660;2023-04-08T04:36:56;7.00;74.60
13115;DHT22;6623;52.120;8.660;2023-04-08T04:39:22;7.20;74.70
13115;DHT22;6623;52.120;8.660;2023-04-08T04:41:47;7.10;74.60
13115;DHT22;6623;52.120;8.660;2023-04-08T04:44:13;8.80;75.70
13115;DHT22;6623;52.120;8.660;2023-04-08T04:46:39;8.00;75.20
13115;DHT22;6623;52.120;8.660;2023-04-08T04:49:05;7.80;75.50
13115;DHT22;6623;52.120;8.660;2023-04-08T04:51:31;7.50;75.20
13115;DHT22;6623;52.120;8.660;2023-04-08T04:53:57;6.90;74.70
13115;DHT22;6623;52.120;8.660;2023-04-08T04:56:23;7.10;74.90
13115;DHT22;6623;52.120;8.660;2023-04-08T04:58:49;7.20;75.00
13115;DHT22;6623;52.120;8.660;2023-04-08T05:01:15;7.20;74.90
13115;DHT22;6623;52.120;8.660;2023-04-08T05:03:40;7.20;75.10
13115;DHT22;6623;52.120;8.660;2023-04-08T05:06:06;8.30;75.90
13115;DHT22;6623;52.120;8.660;2023-04-08T05:08:31;7.10;75.10
13115;DHT22;6623;52.120;8.660;2023-04-08T05:10:57;7.20;75.20
13115;DHT22;6623;52.120;8.660;2023-04-08T05:13:29;7.20;75.30
13115;DHT22;6623;52.120;8.660;2023-04-08T05:15:54;7.20;75.20
13115;DHT22;6623;52.120;8.660;2023-04-08T05:18:20;7.20;75.40
13115;DHT22;6623;52.120;8.660;2023-04-08T05:20:45;7.20;75.30
13115;DHT22;6623;52.120;8.660;2023-04-08T05:23:11;7.20;75.60
13115;DHT22;6623;52.120;8.660;2023-04-08T05:25:37;7.10;75.60
13115;DHT22;6623;52.120;8.660;2023-04-08T05:28:03;7.90;76.40
13115;DHT22;6623;52.120;8.660;2023-04-08T05:30:28;7.10;75.80
13115;DHT22;6623;52.120;8.660;2023-04-08T05:32:54;7.10;75.90
13115;DHT22;6623;52.120;8.660;2023-04-08T05:35:19;7.10;76.10
13115;DHT22;6623;52.120;8.660;2023-04-08T05:37:45;7.00;75.90
13115;DHT22;6623;52.120;8.660;2023-04-08T05:40:11;7.10;75.90
13115;DHT22;6623;52.120;8.660;2023-04-08T05:42:36;7.10;75.90
13115;DHT22;6623;52.120;8.660;2023-04-08T05:45:02;6.90;76.10
13115;DHT22;6623;52.120;8.660;2023-04-08T05:47:27;7.10;76.10
13115;DHT22;6623;52.120;8.660;2023-04-08T05:49:53;7.00;75.90
13115;DHT22;6623;52.120;8.660;2023-04-08T05:52:19;8.00;76.50
13115;DHT22;6623;52.120;8.660;2023-04-08T05:54:44;7.20;75.90
13115;DHT22;6623;52.120;8.660;2023-04-08T05:57:10;7.10;75.90
13115;DHT22;6623;52.120;8.660;2023-04-08T05:59:36;7.20;76.00
13115;DHT22;6623;52.120;8.660;2023-04-08T06:02:01;7.20;76.00
13115;DHT22;6623;52.120;8.660;2023-04-08T06:04:27;7.20;76.00
13115;DHT22;6623;52.120;8.660;2023-04-08T06:06:53;7.10;76.00
13115;DHT22;6623;52.120;8.660;2023-04-08T06:09:18;7.10;76.10
13115;DHT22;6623;52.120;8.660;2023-04-08T06:11:44;7.90;76.50
13115;DHT22;6623;52.120;8.660;2023-04-08T06:14:11;7.10;76.10
13115;DHT22;6623;52.120;8.660;2023-04-08T06:16:39;7.10;76.20
13115;DHT22;6623;52.120;8.660;2023-04-08T06:19:05;7.00;75.90
13115;DHT22;6623;52.120;8.660;2023-04-08T06:21:30;7.10;76.20
13115;DHT22;6623;52.120;8.660;2023-04-08T06:23:56;7.20;76.20
13115;DHT22;6623;52.120;8.660;2023-04-08T06:26:21;7.20;76.50
13115;DHT22;6623;52.120;8.660;2023-04-08T06:28:47;7.30;77.30
13115;DHT22;6623;52.120;8.660;2023-04-08T06:31:12;7.20;76.50
13115;DHT22;6623;52.120;8.660;2023-04-08T06:33:38;7.20;76.50
13115;DHT22;6623;52.120;8.660;2023-04-08T06:36:04;7.10;75.80
13115;DHT22;6623;52.120;8.660;2023-04-08T06:38:30;7.40;76.60
13115;DHT22;6623;52.120;8.660;2023-04-08T06:41:05;7.30;76.40
13115;DHT22;6623;52.120;8.660;2023-04-08T06:43:32;7.20;76.40
13115;DHT22;6623;52.120;8.660;2023-04-08T06:45:57;7.20;76.30
13115;DHT22;6623;52.120;8.660;2023-04-08T06:48:24;7.80;76.70
13115;DHT22;6623;52.120;8.660;2023-04-08T06:50:55;7.30;76.30
13115;DHT22;6623;52.120;8.660;2023-04-08T06:53:25;7.30;76.40
13115;DHT22;6623;52.120;8.660;2023-04-08T06:55:51;7.40;76.40
13115;DHT22;6623;52.120;8.660;2023-04-08T06:58:16;7.30;76.40
13115;DHT22;6623;52.120;8.660;2023-04-08T07:00:42;7.30;76.50
13115;DHT22;6623;52.120;8.660;2023-04-08T07:03:08;7.30;76.50
13115;DHT22;6623;52.120;8.660;2023-04-08T07:05:37;7.40;76.70
13115;DHT22;6623;52.120;8.660;2023-04-08T07:08:03;7.40;76.90
13115;DHT22;6623;52.120;8.660;2023-04-08T07:10:28;7.40;76.90
13115;DHT22;6623;52.120;8.660;2023-04-08T07:12:54;7.40;76.90
13115;DHT22;6623;52.120;8.660;2023-04-08T07:15:20;7.20;76.70
13115;DHT22;6623;52.120;8.660;2023-04-08T07:17:45;7.50;76.90
13115;DHT22;6623;52.120;8.660;2023-04-08T07:20:12;7.40;76.90
13115;DHT22;6623;52.120;8.660;2023-04-08T07:22:38;7.50;76.80
13115;DHT22;6623;52.120;8.660;2023-04-08T07:25:04;7.50;76.70
13115;DHT22;6623;52.120;8.660;2023-04-08T07:27:30;7.70;76.80
13115;DHT22;6623;52.120;8.660;2023-04-08T07:29:56;7.80;76.90
13115;DHT22;6623;52.120;8.660;2023-04-08T07:32:22;7.80;76.70
13115;DHT22;6623;52.120;8.660;2023-04-08T07:34:48;7.50;76.40
13115;DHT22;6623;52.120;8.660;2023-04-08T07:37:13;7.80;76.50
13115;DHT22;6623;52.120;8.660;2023-04-08T07:39:39;7.70;77.20
13115;DHT22;6623;52.120;8.660;2023-04-08T07:42:04;8.60;77.10
13115;DHT22;6623;52.120;8.660;2023-04-08T07:44:30;7.70;76.70
13115;DHT22;6623;52.120;8.660;2023-04-08T07:46:55;7.80;77.30
13115;DHT22;6623;52.120;8.660;2023-04-08T07:49:21;8.80;77.10
13115;DHT22;6623;52.120;8.660;2023-04-08T07:51:47;9.40;77.60
13115;DHT22;6623;52.120;8.660;2023-04-08T07:54:12;7.80;76.60
13115;DHT22;6623;52.120;8.660;2023-04-08T07:56:42;7.80;76.90
13115;DHT22;6623;52.120;8.660;2023-04-08T07:59:09;7.50;76.80
13115;DHT22;6623;52.120;8.660;2023-04-08T08:01:35;7.70;76.90
13115;DHT22;6623;52.120;8.660;2023-04-08T08:04:00;8.50;77.60
13115;DHT22;6623;52.120;8.660;2023-04-08T08:06:26;7.90;77.30
13115;DHT22;6623;52.120;8.660;2023-04-08T08:08:52;9.20;78.00
13115;DHT22;6623;52.120;8.660;2023-04-08T08:11:18;7.90;77.30
13115;DHT22;6623;52.120;8.660;2023-04-08T08:13:43;9.30;78.10
13115;DHT22;6623;52.120;8.660;2023-04-08T08:16:09;7.90;77.50
13115;DHT22;6623;52.120;8.660;2023-04-08T08:18:36;7.90;77.60
13115;DHT22;6623;52.120;8.660;2023-04-08T08:21:02;8.00;77.70
13115;DHT22;6623;52.120;8.660;2023-04-08T08:23:28;8.00;77.70
13115;DHT22;6623;52.120;8.660;2023-04-08T08:26:00;8.10;77.70
13115;DHT22;6623;52.120;8.660;2023-04-08T08:28:27;8.10;77.40
13115;DHT22;6623;52.120;8.660;2023-04-08T08:30:52;8.10;77.40
13115;DHT22;6623;52.120;8.660;2023-04-08T08:33:18;8.10;77.50
13115;DHT22;6623;52.120;8.660;2023-04-08T08:35:44;7.90;77.60
13115;DHT22;6623;52.120;8.660;2023-04-08T08:38:09;8.60;78.00
13115;DHT22;6623;52.120;8.660;2023-04-08T08:40:35;8.60;78.00
13115;DHT22;6623;52.120;8.660;2023-04-08T08:43:01;8.30;77.60
13115;DHT22;6623;52.120;8.660;2023-04-08T08:45:26;8.70;77.80
13115;DHT22;6623;52.120;8.660;2023-04-08T08:47:52;9.80;78.00
13115;DHT22;6623;52.120;8.660;2023-04-08T08:50:18;8.40;77.20
13115;DHT22;6623;52.120;8.660;2023-04-08T08:52:50;8.70;77.50
13115;DHT22;6623;52.120;8.660;2023-04-08T08:55:20;8.50;76.80
13115;DHT22;6623;52.120;8.660;2023-04-08T08:57:49;8.60;77.00
13115;DHT22;6623;52.120;8.660;2023-04-08T09:00:15;8.70;76.90
13115;DHT22;6623;52.120;8.660;2023-04-08T09:02:41;9.00;76.90
13115;DHT22;6623;52.120;8.660;2023-04-08T09:05:07;8.90;76.90
13115;DHT22;6623;52.120;8.660;2023-04-08T09:07:37;9.00;76.90
13115;DHT22;6623;52.120;8.660;2023-04-08T09:10:05;9.10;76.80
13115;DHT22;6623;52.120;8.660;2023-04-08T09:12:31;9.10;76.50
13115;DHT22;6623;52.120;8.660;2023-04-08T09:15:07;9.20;76.30
13115;DHT22;6623;52.120;8.660;2023-04-08T09:17:34;9.20;75.80
13115;DHT22;6623;52.120;8.660;2023-04-08T09:25:28;10.30;77.20
13115;DHT22;6623;52.120;8.660;2023-04-08T09:27:54;9.20;75.60
13115;DHT22;6623;52.120;8.660;2023-04-08T09:30:23;9.20;75.50
13115;DHT22;6623;52.120;8.660;2023-04-08T09:32:53;9.10;75.50
13115;DHT22;6623;52.120;8.660;2023-04-08T09:35:20;9.20;75.80
13115;DHT22;6623;52.120;8.660;2023-04-08T09:37:46;10.50;76.90
13115;DHT22;6623;52.120;8.660;2023-04-08T09:40:12;9.30;76.10
13115;DHT22;6623;52.120;8.660;2023-04-08T09:42:42;9.40;75.90
13115;DHT22;6623;52.120;8.660;2023-04-08T09:45:08;9.40;75.80
13115;DHT22;6623;52.120;8.660;2023-04-08T09:47:58;9.50;75.50
13115;DHT22;6623;52.120;8.660;2023-04-08T09:50:30;9.60;75.30
13115;DHT22;6623;52.120;8.660;2023-04-08T09:53:00;9.60;75.30
13115;DHT22;6623;52.120;8.660;2023-04-08T09:55:29;9.50;75.00
13115;DHT22;6623;52.120;8.660;2023-04-08T09:58:03;9.60;75.20
13115;DHT22;6623;52.120;8.660;2023-04-08T10:00:34;10.30;75.30
13115;DHT22;6623;52.120;8.660;2023-04-08T10:03:16;9.70;74.70
13115;DHT22;6623;52.120;8.660;2023-04-08T10:05:44;9.70;74.60
13115;DHT22;6623;52.120;8.660;2023-04-08T10:08:11;9.60;74.40
13115;DHT22;6623;52.120;8.660;2023-04-08T10:10:38;9.60;74.30
13115;DHT22;6623;52.120;8.660;2023-04-08T10:13:06;9.50;74.30
13115;DHT22;6623;52.120;8.660;2023-04-08T10:15:33;9.00;74.10
13115;DHT22;6623;52.120;8.660;2023-04-08T10:22:57;9.30;74.80
13115;DHT22;6623;52.120;8.660;2023-04-08T10:27:55;9.60;75.20
13115;DHT22;6623;52.120;8.660;2023-04-08T10:32:53;9.30;74.90
13115;DHT22;6623;52.120;8.660;2023-04-08T10:35:31;9.40;75.00
13115;DHT22;6623;52.120;8.660;2023-04-08T10:37:58;9.40;75.10
13115;DHT22;6623;52.120;8.660;2023-04-08T10:40:24;9.40;75.10
13115;DHT22;6623;52.120;8.660;2023-04-08T10:42:56;9.40;75.20
13115;DHT22;6623;52.120;8.660;2023-04-08T10:45:22;9.30;75.20
13115;DHT22;6623;52.120;8.660;2023-04-08T10:47:48;9.50;75.30
13115;DHT22;6623;52.120;8.660;2023-04-08T10:50:15;9.50;75.30
13115;DHT22;6623;52.120;8.660;2023-04-08T10:52:52;9.60;75.50
13115;DHT22;6623;52.120;8.660;2023-04-08T10:55:25;9.70;75.60
13115;DHT22;6623;52.120;8.660;2023-04-08T10:57:51;9.80;75.60
13115;DHT22;6623;52.120;8.660;2023-04-08T11:00:17;9.90;76.20
13115;DHT22;6623;52.120;8.660;2023-04-08T11:02:43;10.00;75.00
13115;DHT22;6623;52.120;8.660;2023-04-08T11:05:09;10.20;75.20
13115;DHT22;6623;52.120;8.660;2023-04-08T11:07:42;10.00;74.60
13115;DHT22;6623;52.120;8.660;2023-04-08T11:10:08;10.00;74.40
13115;DHT22;6623;52.120;8.660;2023-04-08T11:12:34;10.00;74.60
13115;DHT22;6623;52.120;8.660;2023-04-08T11:15:02;9.90;74.40
13115;DHT22;6623;52.120;8.660;2023-04-08T11:17:28;10.00;74.40
13115;DHT22;6623;52.120;8.660;2023-04-08T11:19:54;10.00;74.70
13115;DHT22;6623;52.120;8.660;2023-04-08T11:22:20;9.60;74.30
13115;DHT22;6623;52.120;8.660;2023-04-08T11:24:46;9.90;74.40
13115;DHT22;6623;52.120;8.660;2023-04-08T11:27:12;10.00;74.60
13115;DHT22;6623;52.120;8.660;2023-04-08T11:29:41;10.00;74.40
13115;DHT22;6623;52.120;8.660;2023-04-08T11:32:07;10.00;74.20
13115;DHT22;6623;52.120;8.660;2023-04-08T11:34:38;11.10;74.80
13115;DHT22;6623;52.120;8.660;2023-04-08T11:37:03;10.20;74.60
13115;DHT22;6623;52.120;8.660;2023-04-08T11:39:29;10.80;74.60
13115;DHT22;6623;52.120;8.660;2023-04-08T11:41:55;10.30;73.90
13115;DHT22;6623;52.120;8.660;2023-04-08T11:44:30;10.10;73.50
13115;DHT22;6623;52.120;8.660;2023-04-08T11:46:56;10.20;73.50
13115;DHT22;6623;52.120;8.660;2023-04-08T11:49:22;10.30;73.90
13115;DHT22;6623;52.120;8.660;2023-04-08T11:51:58;10.40;73.90
13115;DHT22;6623;52.120;8.660;2023-04-08T11:54:28;10.50;73.70
13115;DHT22;6623;52.120;8.660;2023-04-08T11:56:54;10.60;73.30
13115;DHT22;6623;52.120;8.660;2023-04-08T11:59:25;10.60;73.20
13115;DHT22;6623;52.120;8.660;2023-04-08T12:01:51;10.60;73.30
13115;DHT22;6623;52.120;8.660;2023-04-08T12:04:17;10.60;73.20
13115;DHT22;6623;52.120;8.660;2023-04-08T12:06:43;10.40;73.00
13115;DHT22;6623;52.120;8.660;2023-04-08T12:09:11;10.60;73.30
13115;DHT22;6623;52.120;8.660;2023-04-08T12:11:37;10.50;73.00
13115;DHT22;6623;52.120;8.660;2023-04-08T12:14:02;10.60;73.00
13115;DHT22;6623;52.120;8.660;2023-04-08T12:16:28;10.60;73.20
13115;DHT22;6623;52.120;8.660;2023-04-08T12:18:53;10.70;73.30
13115;DHT22;6623;52.120;8.660;2023-04-08T12:21:19;11.80;74.10
13115;DHT22;6623;52.120;8.660;2023-04-08T12:23:45;10.90;73.50
13115;DHT22;6623;52.120;8.660;2023-04-08T12:26:10;10.90;73.00
13115;DHT22;6623;52.120;8.660;2023-04-08T12:28:37;10.90;72.60
13115;DHT22;6623;52.120;8.660;2023-04-08T12:31:03;10.80;72.30
13115;DHT22;6623;52.120;8.660;2023-04-08T12:33:29;10.90;72.40
13115;DHT22;6623;52.120;8.660;2023-04-08T12:35:55;10.70;72.20
13115;DHT22;6623;52.120;8.660;2023-04-08T12:38:22;11.00;72.50
13115;DHT22;6623;52.120;8.660;2023-04-08T12:40:48;10.70;72.60
13115;DHT22;6623;52.120;8.660;2023-04-08T12:43:13;10.70;72.70
13115;DHT22;6623;52.120;8.660;2023-04-08T12:45:39;10.80;72.80
13115;DHT22;6623;52.120;8.660;2023-04-08T12:48:04;10.70;72.90
13115;DHT22;6623;52.120;8.660;2023-04-08T12:50:30;10.80;73.20
13115;DHT22;6623;52.120;8.660;2023-04-08T12:52:55;10.70;72.80
13115;DHT22;6623;52.120;8.660;2023-04-08T12:55:21;11.10;72.80
13115;DHT22;6623;52.120;8.660;2023-04-08T12:57:50;11.90;72.70
13115;DHT22;6623;52.120;8.660;2023-04-08T13:00:16;11.00;71.80
13115;DHT22;6623;52.120;8.660;2023-04-08T13:02:42;11.00;72.10
13115;DHT22;6623;52.120;8.660;2023-04-08T13:05:09;11.60;72.40
13115;DHT22;6623;52.120;8.660;2023-04-08T13:07:35;11.60;72.60
13115;DHT22;6623;52.120;8.660;2023-04-08T13:10:00;10.80;72.10
13115;DHT22;6623;52.120;8.660;2023-04-08T13:12:26;10.80;72.30
13115;DHT22;6623;52.120;8.660;2023-04-08T13:14:52;10.80;72.30
13115;DHT22;6623;52.120;8.660;2023-04-08T13:17:17;11.50;72.40
13115;DHT22;6623;52.120;8.660;2023-04-08T13:19:43;10.80;72.00
13115;DHT22;6623;52.120;8.660;2023-04-08T13:22:08;10.70;72.00
13115;DHT22;6623;52.120;8.660;2023-04-08T13:24:34;10.70;72.10
13115;DHT22;6623;52.120;8.660;2023-04-08T13:26:59;10.80;72.20
13115;DHT22;6623;52.120;8.660;2023-04-08T13:29:26;10.80;72.20
13115;DHT22;6623;52.120;8.660;2023-04-08T13:31:52;10.80;72.40
13115;DHT22;6623;52.120;8.660;2023-04-08T13:34:18;10.70;72.30
13115;DHT22;6623;52.120;8.660;2023-04-08T13:36:43;10.60;72.20
13115;DHT22;6623;52.120;8.660;2023-04-08T13:39:09;10.70;72.20
13115;DHT22;6623;52.120;8.660;2023-04-08T13:41:34;10.70;72.30
13115;DHT22;6623;52.120;8.660;2023-04-08T13:44:00;10.70;72.50
13115;DHT22;6623;52.120;8.660;2023-04-08T13:46:26;10.70;72.80
13115;DHT22;6623;52.120;8.660;2023-04-08T13:48:51;11.70;73.50
13115;DHT22;6623;52.120;8.660;2023-04-08T13:51:17;10.60;72.90
13115;DHT22;6623;52.120;8.660;2023-04-08T13:53:43;10.60;73.40
13115;DHT22;6623;52.120;8.660;2023-04-08T13:56:08;10.70;73.10
13115;DHT22;6623;52.120;8.660;2023-04-08T13:58:34;10.80;73.20
13115;DHT22;6623;52.120;8.660;2023-04-08T14:00:59;11.10;73.30
13115;DHT22;6623;52.120;8.660;2023-04-08T14:03:25;11.00;73.00
13115;DHT22;6623;52.120;8.660;2023-04-08T14:05:50;11.10;72.70
13115;DHT22;6623;52.120;8.660;2023-04-08T14:08:16;11.20;72.60
13115;DHT22;6623;52.120;8.660;2023-04-08T14:10:49;11.00;72.10
13115;DHT22;6623;52.120;8.660;2023-04-08T14:13:16;11.00;72.00
13115;DHT22;6623;52.120;8.660;2023-04-08T14:15:41;11.00;72.10
13115;DHT22;6623;52.120;8.660;2023-04-08T14:18:07;11.00;72.10
13115;DHT22;6623;52.120;8.660;2023-04-08T14:20:32;11.70;72.60
13115;DHT22;6623;52.120;8.660;2023-04-08T14:23:00;10.90;72.40
13115;DHT22;6623;52.120;8.660;2023-04-08T14:25:25;11.70;72.90
13115;DHT22;6623;52.120;8.660;2023-04-08T14:27:51;10.90;72.60
13115;DHT22;6623;52.120;8.660;2023-04-08T14:30:16;10.80;72.50
13115;DHT22;6623;52.120;8.660;2023-04-08T14:32:42;10.90;72.80
13115;DHT22;6623;52.120;8.660;2023-04-08T14:35:08;10.80;72.60
13115;DHT22;6623;52.120;8.660;2023-04-08T14:37:33;10.80;72.80
13115;DHT22;6623;52.120;8.660;2023-04-08T14:40:01;10.70;72.90
13115;DHT22;6623;52.120;8.660;2023-04-08T14:42:27;10.80;73.20
13115;DHT22;6623;52.120;8.660;2023-04-08T14:44:52;10.70;73.20
13115;DHT22;6623;52.120;8.660;2023-04-08T14:47:18;10.70;73.10
13115;DHT22;6623;52.120;8.660;2023-04-08T14:49:43;10.80;72.90
13115;DHT22;6623;52.120;8.660;2023-04-08T14:52:09;10.70;72.80
13115;DHT22;6623;52.120;8.660;2023-04-08T14:54:34;10.90;73.00
13115;DHT22;6623;52.120;8.660;2023-04-08T14:57:00;10.80;73.00
13115;DHT22;6623;52.120;8.660;2023-04-08T14:59:26;10.60;73.10
13115;DHT22;6623;52.120;8.660;2023-04-08T15:01:51;10.70;73.20
13115;DHT22;6623;52.120;8.660;2023-04-08T15:04:17;10.60;73.10
13115;DHT22;6623;52.120;8.660;2023-04-08T15:06:42;10.80;73.10
13115;DHT22;6623;52.120;8.660;2023-04-08T15:09:08;11.50;73.50
13115;DHT22;6623;52.120;8.660;2023-04-08T15:11:34;12.30;74.00
13115;DHT22;6623;52.120;8.660;2023-04-08T15:13:59;10.70;73.20
13115;DHT22;6623;52.120;8.660;2023-04-08T15:16:25;10.80;73.40
13115;DHT22;6623;52.120;8.660;2023-04-08T15:18:51;10.70;73.40
13115;DHT22;6623;52.120;8.660;2023-04-08T15:21:16;10.80;73.60
13115;DHT22;6623;52.120;8.660;2023-04-08T15:23:42;11.00;73.80
13115;DHT22;6623;52.120;8.660;2023-04-08T15:26:08;11.10;73.60
13115;DHT22;6623;52.120;8.660;2023-04-08T15:28:34;11.00;73.20
13115;DHT22;6623;52.120;8.660;2023-04-08T15:31:03;11.90;73.50
13115;DHT22;6623;52.120;8.660;2023-04-08T15:33:29;11.10;73.20
13115;DHT22;6623;52.120;8.660;2023-04-08T15:35:54;10.80;72.90
13115;DHT22;6623;52.120;8.660;2023-04-08T15:38:21;10.80;73.10
13115;DHT22;6623;52.120;8.660;2023-04-08T15:40:47;11.50;73.70
13115;DHT22;6623;52.120;8.660;2023-04-08T15:43:12;10.90;73.10
13115;DHT22;6623;52.120;8.660;2023-04-08T15:45:42;10.70;72.80
13115;DHT22;6623;52.120;8.660;2023-04-08T15:48:08;11.00;72.80
13115;DHT22;6623;52.120;8.660;2023-04-08T15:50:36;11.60;73.30
13115;DHT22;6623;52.120;8.660;2023-04-08T15:53:02;10.90;73.10
13115;DHT22;6623;52.120;8.660;2023-04-08T15:55:27;10.90;73.20
13115;DHT22;6623;52.120;8.660;2023-04-08T15:57:53;10.80;73.20
13115;DHT22;6623;52.120;8.660;2023-04-08T16:00:21;10.70;73.20
13115;DHT22;6623;52.120;8.660;2023-04-08T16:02:47;10.90;73.20
13115;DHT22;6623;52.120;8.660;2023-04-08T16:05:13;11.10;73.30
13115;DHT22;6623;52.120;8.660;2023-04-08T16:07:39;12.40;74.20
13115;DHT22;6623;52.120;8.660;2023-04-08T16:10:05;10.70;73.20
13115;DHT22;6623;52.120;8.660;2023-04-08T16:12:30;10.70;73.50
13115;DHT22;6623;52.120;8.660;2023-04-08T16:14:57;10.70;73.60